If you wish to contribute or participate in the discussions about articles you are invited to join SKYbrary as a registered user

 Actions

Minden-Tahoe Airport

From SKYbrary Wiki

KMEV
Airport
ICAO: KMEV – IATA: MEV
Summary
Name Minden-Tahoe Airport
Region North America
Territory United States US.gif
Location Minden, Nevada
Serving Minden
Elevation 1,440.485 m <br />4,726 ft <br />4,726 ft1,440.485 m <br />
Coordinates 39° 0' 1.98" N, 119° 45' 8.30" W
Runways
Designator Length Width Surface ROPS
12/30 1615 m5,298.556 ft <br /> 23 m75.459 ft <br /> ASPH-G yes/yes
12G/30G 671 m2,201.444 ft <br /> 18 m59.055 ft <br /> DIRT-G /
16/34 2256 m7,401.575 ft <br /> 30 m98.425 ft <br /> ASP yes/yes


METAR
Observation KMEV 241815Z AUTO 30005KT 10SM CLR 25/05 A3012 RMK AO2
Station Minden-Tahoe Airport
Date/Time 24 June 2021 18:15:00
Wind direction 300°
Wind speed 05 kts
Lowest cloud amount n/a
Temperature 25°C
Dew point 5°C
Humidity 27%
QNH hPa
Weather condition n/a

Maps

Terrain

Loading map...

Airport Layout

Loading map...


Accidents & Serious Incidents at or in vicinity of KMEV

None on SKYbrary